createdAt,value
2019-06-20T00:00:57.000Z,97742
2019-06-20T00:02:28.000Z,97738
2019-06-20T00:04:40.000Z,97732
2019-06-20T00:06:08.000Z,97732
2019-06-20T00:08:23.000Z,97732
2019-06-20T00:09:50.000Z,97731
2019-06-20T00:12:02.000Z,97733
2019-06-20T00:13:29.000Z,97736
2019-06-20T00:15:41.000Z,97739
2019-06-20T00:17:12.000Z,97740
2019-06-20T00:20:36.000Z,97743
2019-06-20T00:21:58.000Z,97743
2019-06-20T00:23:59.000Z,97744
2019-06-20T00:25:21.000Z,97748
2019-06-20T00:27:23.000Z,97750
2019-06-20T00:28:45.000Z,97748
2019-06-20T00:30:46.000Z,97749
2019-06-20T00:32:08.000Z,97749
2019-06-20T00:34:08.000Z,97750
2019-06-20T00:35:31.000Z,97751
2019-06-20T00:37:32.000Z,97752
2019-06-20T00:38:54.000Z,97752
2019-06-20T00:40:55.000Z,97749
2019-06-20T00:42:17.000Z,97752
2019-06-20T00:44:19.000Z,97752
2019-06-20T00:45:42.000Z,97752
2019-06-20T00:47:44.000Z,97753
2019-06-20T00:49:06.000Z,97751
2019-06-20T00:51:08.000Z,97752
2019-06-20T00:52:31.000Z,97748
2019-06-20T00:54:32.000Z,97746
2019-06-20T00:55:54.000Z,97744
2019-06-20T00:57:55.000Z,97745
2019-06-20T00:59:17.000Z,97748
2019-06-20T01:01:19.000Z,97755
2019-06-20T01:02:41.000Z,97762
2019-06-20T01:04:43.000Z,97765
2019-06-20T01:06:06.000Z,97766
2019-06-20T01:08:09.000Z,97762
2019-06-20T01:09:31.000Z,97758
2019-06-20T01:11:34.000Z,97755
2019-06-20T01:12:58.000Z,97755
2019-06-20T01:15:00.000Z,97756
2019-06-20T01:16:21.000Z,97756
2019-06-20T01:18:24.000Z,97755
2019-06-20T01:19:46.000Z,97753
2019-06-20T01:21:47.000Z,97755
2019-06-20T01:23:10.000Z,97758
2019-06-20T01:25:12.000Z,97757
2019-06-20T01:26:34.000Z,97758
2019-06-20T01:28:37.000Z,97757
2019-06-20T01:29:59.000Z,97763
2019-06-20T01:32:01.000Z,97770
2019-06-20T01:33:26.000Z,97773
2019-06-20T01:35:28.000Z,97775
2019-06-20T01:36:51.000Z,97776
2019-06-20T01:38:53.000Z,97778
2019-06-20T01:40:16.000Z,97780
2019-06-20T01:42:19.000Z,97786
2019-06-20T01:43:41.000Z,97798
2019-06-20T01:45:53.000Z,97811
2019-06-20T01:47:19.000Z,97824
2019-06-20T01:49:25.000Z,97829
2019-06-20T01:50:49.000Z,97838
2019-06-20T01:52:50.000Z,97842
2019-06-20T01:54:13.000Z,97848
2019-06-20T01:56:14.000Z,97850
2019-06-20T01:57:39.000Z,97840
2019-06-20T01:59:40.000Z,97833
2019-06-20T02:01:04.000Z,97824
2019-06-20T02:03:07.000Z,97813
2019-06-20T02:04:33.000Z,97812
2019-06-20T02:06:37.000Z,97813
2019-06-20T02:08:00.000Z,97811
2019-06-20T02:10:05.000Z,97800
2019-06-20T02:11:27.000Z,97788
2019-06-20T02:13:29.000Z,97783
2019-06-20T02:14:55.000Z,97785
2019-06-20T02:16:57.000Z,97780
2019-06-20T02:18:23.000Z,97775
2019-06-20T02:20:25.000Z,97775
2019-06-20T02:21:46.000Z,97771
2019-06-20T02:23:53.000Z,97774
2019-06-20T02:25:16.000Z,97769
2019-06-20T02:27:19.000Z,97765
2019-06-20T02:28:50.000Z,97771
2019-06-20T02:30:54.000Z,97776
2019-06-20T02:32:17.000Z,97782
2019-06-20T02:34:24.000Z,97785
2019-06-20T02:35:47.000Z,97782
2019-06-20T02:37:48.000Z,97781
2019-06-20T02:39:12.000Z,97787
2019-06-20T02:41:18.000Z,97793
2019-06-20T02:42:42.000Z,97808
2019-06-20T02:44:48.000Z,97827
2019-06-20T02:46:12.000Z,97842
2019-06-20T02:48:16.000Z,97848
2019-06-20T02:49:40.000Z,97848
2019-06-20T02:51:42.000Z,97838
2019-06-20T02:53:08.000Z,97829
2019-06-20T02:55:17.000Z,97827
2019-06-20T02:56:44.000Z,97826
2019-06-20T02:58:47.000Z,97822
2019-06-20T03:00:13.000Z,97823
2019-06-20T03:02:20.000Z,97826
2019-06-20T03:03:46.000Z,97832
2019-06-20T03:05:51.000Z,97841
2019-06-20T03:07:16.000Z,97846
2019-06-20T03:09:21.000Z,97851
2019-06-20T03:10:53.000Z,97857
2019-06-20T03:12:57.000Z,97862
2019-06-20T03:14:24.000Z,97867
2019-06-20T03:16:28.000Z,97866
2019-06-20T03:17:51.000Z,97865
2019-06-20T03:19:55.000Z,97863
2019-06-20T03:21:23.000Z,97862
2019-06-20T03:23:28.000Z,97864
2019-06-20T03:24:51.000Z,97868
2019-06-20T03:28:31.000Z,97868
2019-06-20T03:29:05.000Z,97867
2019-06-20T03:30:29.000Z,97864
2019-06-20T03:34:07.000Z,97863
2019-06-20T03:36:08.000Z,97877
2019-06-20T03:37:31.000Z,97887
2019-06-20T03:39:32.000Z,97889
2019-06-20T03:40:54.000Z,97888
2019-06-20T03:42:55.000Z,97895
2019-06-20T03:44:17.000Z,97902
2019-06-20T03:46:18.000Z,97905
2019-06-20T03:47:40.000Z,97905
2019-06-20T03:49:41.000Z,97903
2019-06-20T03:51:03.000Z,97899
2019-06-20T03:53:05.000Z,97899
2019-06-20T03:54:27.000Z,97896
2019-06-20T03:56:28.000Z,97898
2019-06-20T03:57:50.000Z,97900
2019-06-20T03:59:51.000Z,97899
2019-06-20T04:01:13.000Z,97906
2019-06-20T04:03:15.000Z,97905
2019-06-20T04:04:37.000Z,97905
2019-06-20T04:06:38.000Z,97903
2019-06-20T04:08:00.000Z,97896
2019-06-20T04:10:01.000Z,97895
2019-06-20T04:11:23.000Z,97897
2019-06-20T04:13:24.000Z,97895
2019-06-20T04:14:49.000Z,97893
2019-06-20T04:16:51.000Z,97896
2019-06-20T04:18:17.000Z,97902
2019-06-20T04:20:19.000Z,97908
2019-06-20T04:21:42.000Z,97909
2019-06-20T04:23:43.000Z,97913
2019-06-20T04:25:05.000Z,97920
2019-06-20T04:27:07.000Z,97923
2019-06-20T04:28:29.000Z,97926
2019-06-20T04:30:30.000Z,97925
2019-06-20T04:31:52.000Z,97928
2019-06-20T04:34:03.000Z,97932
2019-06-20T04:35:25.000Z,97931
2019-06-20T04:37:28.000Z,97932
2019-06-20T04:38:50.000Z,97931
2019-06-20T04:40:51.000Z,97929
2019-06-20T04:42:16.000Z,97931
2019-06-20T04:44:20.000Z,97932
2019-06-20T04:45:42.000Z,97932
2019-06-20T04:47:43.000Z,97932
2019-06-20T04:49:07.000Z,97934
2019-06-20T04:51:09.000Z,97933
2019-06-20T04:52:32.000Z,97935
2019-06-20T04:54:36.000Z,97930
2019-06-20T04:55:59.000Z,97929
2019-06-20T04:58:02.000Z,97929
2019-06-20T04:59:24.000Z,97930
2019-06-20T05:01:25.000Z,97931
2019-06-20T05:02:47.000Z,97930
2019-06-20T05:04:50.000Z,97930
2019-06-20T05:06:14.000Z,97933
2019-06-20T05:08:17.000Z,97924
2019-06-20T05:09:41.000Z,97918
2019-06-20T05:11:46.000Z,97916
2019-06-20T05:13:10.000Z,97918
2019-06-20T05:15:12.000Z,97919
2019-06-20T05:16:34.000Z,97921
2019-06-20T05:18:37.000Z,97921
2019-06-20T05:20:02.000Z,97925
2019-06-20T05:22:06.000Z,97929
2019-06-20T05:23:34.000Z,97929
2019-06-20T05:25:35.000Z,97928
2019-06-20T05:27:01.000Z,97931
2019-06-20T05:29:07.000Z,97935
2019-06-20T05:30:31.000Z,97935
2019-06-20T05:32:32.000Z,97935
2019-06-20T05:34:02.000Z,97942
2019-06-20T05:36:07.000Z,97943
2019-06-20T05:37:33.000Z,97941
2019-06-20T05:39:37.000Z,97942
2019-06-20T05:41:01.000Z,97940
2019-06-20T05:43:04.000Z,97941
2019-06-20T05:44:30.000Z,97943
2019-06-20T05:46:32.000Z,97948
2019-06-20T05:47:55.000Z,97950
2019-06-20T05:50:06.000Z,97953
2019-06-20T05:51:30.000Z,97956
2019-06-20T05:53:35.000Z,97955
2019-06-20T05:54:58.000Z,97955
2019-06-20T05:57:00.000Z,97953
2019-06-20T05:58:27.000Z,97949
2019-06-20T06:02:02.000Z,97949
2019-06-20T06:04:02.000Z,97948
2019-06-20T06:05:28.000Z,97950
2019-06-20T06:07:29.000Z,97949
2019-06-20T06:08:52.000Z,97950
2019-06-20T06:10:53.000Z,97953
2019-06-20T06:12:15.000Z,97955
2019-06-20T06:14:16.000Z,97954
2019-06-20T06:15:38.000Z,97952
2019-06-20T06:17:39.000Z,97953
2019-06-20T06:19:01.000Z,97952
2019-06-20T06:21:02.000Z,97950
2019-06-20T06:22:25.000Z,97956
2019-06-20T06:24:26.000Z,97955
2019-06-20T06:25:48.000Z,97954
2019-06-20T06:27:49.000Z,97956
2019-06-20T06:29:12.000Z,97958
2019-06-20T06:31:13.000Z,97958
2019-06-20T06:32:36.000Z,97958
2019-06-20T06:34:41.000Z,97959
2019-06-20T06:36:03.000Z,97956
2019-06-20T06:38:05.000Z,97956
2019-06-20T06:39:27.000Z,97958
2019-06-20T06:41:28.000Z,97962
2019-06-20T06:42:59.000Z,97958
2019-06-20T06:45:00.000Z,97957
2019-06-20T06:46:24.000Z,97959
2019-06-20T06:48:25.000Z,97962
2019-06-20T06:49:47.000Z,97965
2019-06-20T06:51:48.000Z,97964
2019-06-20T06:53:10.000Z,97961
2019-06-20T06:55:12.000Z,97964
2019-06-20T06:56:34.000Z,97966
2019-06-20T06:58:36.000Z,97966
2019-06-20T06:59:58.000Z,97965
2019-06-20T07:01:59.000Z,97965
2019-06-20T07:03:22.000Z,97964
2019-06-20T07:05:24.000Z,97965
2019-06-20T07:06:48.000Z,97969
2019-06-20T07:08:50.000Z,97968
2019-06-20T07:10:12.000Z,97969
2019-06-20T07:12:14.000Z,97971
2019-06-20T07:13:36.000Z,97973
2019-06-20T07:15:37.000Z,97974
2019-06-20T07:16:59.000Z,97974
2019-06-20T07:19:02.000Z,97974
2019-06-20T07:20:25.000Z,97976
2019-06-20T07:22:29.000Z,97972
2019-06-20T07:23:51.000Z,97970
2019-06-20T07:25:53.000Z,97967
2019-06-20T07:27:16.000Z,97966
2019-06-20T07:29:19.000Z,97966
2019-06-20T07:30:41.000Z,97963
2019-06-20T07:32:43.000Z,97962
2019-06-20T07:34:07.000Z,97960
2019-06-20T07:36:11.000Z,97961
2019-06-20T07:37:34.000Z,97964
2019-06-20T07:39:36.000Z,97966
2019-06-20T07:41:01.000Z,97966
2019-06-20T07:43:04.000Z,97968
2019-06-20T07:44:28.000Z,97970
2019-06-20T07:48:08.000Z,97972
2019-06-20T07:50:33.000Z,97977
2019-06-20T07:51:55.000Z,97976
2019-06-20T07:53:56.000Z,97978
2019-06-20T07:55:18.000Z,97979
2019-06-20T07:57:19.000Z,97977
2019-06-20T07:58:41.000Z,97980
2019-06-20T08:00:42.000Z,97978
2019-06-20T08:02:04.000Z,97978
2019-06-20T08:04:05.000Z,97976
2019-06-20T08:05:27.000Z,97977
2019-06-20T08:07:29.000Z,97977
2019-06-20T08:08:51.000Z,97980
2019-06-20T08:10:52.000Z,97977
2019-06-20T08:12:14.000Z,97982
2019-06-20T08:14:15.000Z,97983
2019-06-20T08:15:37.000Z,97982
2019-06-20T08:17:38.000Z,97982
2019-06-20T08:19:01.000Z,97976
2019-06-20T08:21:02.000Z,97976
2019-06-20T08:22:24.000Z,97976
2019-06-20T08:24:25.000Z,97978
2019-06-20T08:25:47.000Z,97982
2019-06-20T08:27:49.000Z,97984
2019-06-20T08:29:12.000Z,97979
2019-06-20T08:31:22.000Z,97979
2019-06-20T08:32:44.000Z,97979
2019-06-20T08:34:46.000Z,97980
2019-06-20T08:36:09.000Z,97977
2019-06-20T08:38:11.000Z,97976
2019-06-20T08:39:33.000Z,97980
2019-06-20T08:41:34.000Z,97980
2019-06-20T08:42:56.000Z,97984
2019-06-20T08:44:59.000Z,97981
2019-06-20T08:46:21.000Z,97987
2019-06-20T08:48:23.000Z,97989
2019-06-20T08:49:47.000Z,97989
2019-06-20T08:51:48.000Z,97987
2019-06-20T08:53:10.000Z,97989
2019-06-20T08:55:11.000Z,97991
2019-06-20T08:56:34.000Z,97989
2019-06-20T08:58:35.000Z,97985
2019-06-20T08:59:57.000Z,97984
2019-06-20T09:03:24.000Z,97982
2019-06-20T09:05:25.000Z,97980
2019-06-20T09:06:48.000Z,97977
2019-06-20T09:08:53.000Z,97975
2019-06-20T09:10:19.000Z,97980
2019-06-20T09:12:23.000Z,97983
2019-06-20T09:13:45.000Z,97979
2019-06-20T09:15:47.000Z,97979
2019-06-20T09:17:10.000Z,97979
2019-06-20T09:19:13.000Z,97976
2019-06-20T09:20:35.000Z,97974
2019-06-20T09:22:37.000Z,97978
2019-06-20T09:24:01.000Z,97977
2019-06-20T09:26:03.000Z,97980
2019-06-20T09:27:25.000Z,97982
2019-06-20T09:29:27.000Z,97985
2019-06-20T09:31:06.000Z,97979
2019-06-20T09:33:09.000Z,97983
2019-06-20T09:34:36.000Z,97987
2019-06-20T09:36:39.000Z,97985
2019-06-20T09:38:05.000Z,97985
2019-06-20T09:40:06.000Z,97983
2019-06-20T09:41:28.000Z,97992
2019-06-20T09:43:30.000Z,97990
2019-06-20T09:44:54.000Z,97990
2019-06-20T09:47:00.000Z,97988
2019-06-20T09:48:26.000Z,97981
2019-06-20T09:50:30.000Z,97981
2019-06-20T09:51:56.000Z,97986
2019-06-20T09:54:03.000Z,97990
2019-06-20T09:55:28.000Z,97990
2019-06-20T09:57:31.000Z,97991
2019-06-20T09:58:57.000Z,97990
2019-06-20T10:01:00.000Z,97987
2019-06-20T10:02:23.000Z,97987
2019-06-20T10:04:25.000Z,97989
2019-06-20T10:05:51.000Z,97988
2019-06-20T10:07:56.000Z,97987
2019-06-20T10:09:21.000Z,97986
2019-06-20T10:11:24.000Z,97986
2019-06-20T10:12:46.000Z,97990
2019-06-20T10:14:52.000Z,97993
2019-06-20T10:16:15.000Z,97997
2019-06-20T10:18:20.000Z,97999
2019-06-20T10:19:46.000Z,98000
2019-06-20T10:21:56.000Z,98000
2019-06-20T10:23:19.000Z,98002
2019-06-20T10:25:26.000Z,98004
2019-06-20T10:26:53.000Z,98005
2019-06-20T10:28:56.000Z,98003
2019-06-20T10:30:20.000Z,98001
2019-06-20T10:32:22.000Z,98005
2019-06-20T10:33:52.000Z,98004
2019-06-20T10:36:02.000Z,98002
2019-06-20T10:37:26.000Z,98002
2019-06-20T10:39:33.000Z,98002
2019-06-20T10:40:55.000Z,98005
2019-06-20T10:43:07.000Z,98008
2019-06-20T10:44:33.000Z,98008
2019-06-20T10:46:38.000Z,98009
2019-06-20T10:48:06.000Z,98011
2019-06-20T10:50:13.000Z,98011
2019-06-20T10:51:44.000Z,98015
2019-06-20T10:53:49.000Z,98011
2019-06-20T10:55:17.000Z,98013
2019-06-20T10:57:22.000Z,98013
2019-06-20T10:58:44.000Z,98013
2019-06-20T11:00:54.000Z,98014
2019-06-20T11:02:18.000Z,98011
2019-06-20T11:04:27.000Z,98007
2019-06-20T11:05:53.000Z,98005
2019-06-20T11:08:04.000Z,98006
2019-06-20T11:09:28.000Z,98006
2019-06-20T11:11:35.000Z,98006
2019-06-20T11:13:07.000Z,98004
2019-06-20T11:15:15.000Z,98001
2019-06-20T11:16:42.000Z,97999
2019-06-20T11:18:54.000Z,97998
2019-06-20T11:20:21.000Z,97997
2019-06-20T11:22:25.000Z,97999
2019-06-20T11:23:54.000Z,97998
2019-06-20T11:25:56.000Z,97998
2019-06-20T11:27:21.000Z,97996
2019-06-20T11:29:30.000Z,97995
2019-06-20T11:30:55.000Z,97998
2019-06-20T11:33:10.000Z,97998
2019-06-20T11:34:40.000Z,97999
2019-06-20T11:36:50.000Z,97997
2019-06-20T11:38:18.000Z,97994
2019-06-20T11:40:28.000Z,97999
2019-06-20T11:41:56.000Z,98003
2019-06-20T11:44:06.000Z,98003
2019-06-20T11:45:34.000Z,98002
2019-06-20T11:47:45.000Z,98000
2019-06-20T11:49:19.000Z,97997
2019-06-20T11:51:27.000Z,97997
2019-06-20T11:52:56.000Z,97996
2019-06-20T11:55:04.000Z,98001
2019-06-20T11:56:33.000Z,98003
2019-06-20T11:58:45.000Z,98007
2019-06-20T12:00:17.000Z,98010
2019-06-20T12:02:28.000Z,98008
2019-06-20T12:03:58.000Z,98002
2019-06-20T12:06:12.000Z,97998
2019-06-20T12:07:39.000Z,97999
2019-06-20T12:09:52.000Z,98003
2019-06-20T12:11:21.000Z,98000
2019-06-20T12:13:30.000Z,97998
2019-06-20T12:15:00.000Z,97997
2019-06-20T12:17:09.000Z,97992
2019-06-20T12:18:39.000Z,97991
2019-06-20T12:20:53.000Z,97993
2019-06-20T12:22:22.000Z,97993
2019-06-20T12:24:27.000Z,97993
2019-06-20T12:25:59.000Z,97991
2019-06-20T12:28:08.000Z,97990
2019-06-20T12:29:38.000Z,97986
2019-06-20T12:31:51.000Z,97985
2019-06-20T12:33:24.000Z,97984
2019-06-20T12:36:49.000Z,97985
2019-06-20T12:38:12.000Z,97981
2019-06-20T12:40:16.000Z,97980
2019-06-20T12:41:37.000Z,97973
2019-06-20T12:43:40.000Z,97974
2019-06-20T12:45:03.000Z,97971
2019-06-20T12:47:04.000Z,97966
2019-06-20T12:48:26.000Z,97970
2019-06-20T12:50:29.000Z,97966
2019-06-20T12:51:51.000Z,97966
2019-06-20T12:53:52.000Z,97962
2019-06-20T12:55:17.000Z,97961
2019-06-20T12:57:18.000Z,97955
2019-06-20T12:58:41.000Z,97953
2019-06-20T13:00:44.000Z,97954
2019-06-20T13:02:08.000Z,97955
2019-06-20T13:04:10.000Z,97956
2019-06-20T13:05:32.000Z,97954
2019-06-20T13:07:33.000Z,97955
2019-06-20T13:08:55.000Z,97954
2019-06-20T13:10:56.000Z,97958
2019-06-20T13:12:17.000Z,97957
2019-06-20T13:14:19.000Z,97957
2019-06-20T13:15:43.000Z,97959
2019-06-20T13:17:46.000Z,97963
2019-06-20T13:19:08.000Z,97966
2019-06-20T13:21:09.000Z,97971
2019-06-20T13:22:31.000Z,97975
2019-06-20T13:24:33.000Z,97976
2019-06-20T13:25:55.000Z,97982
2019-06-20T13:27:56.000Z,97983
2019-06-20T13:29:18.000Z,97984
2019-06-20T13:31:19.000Z,97987
2019-06-20T13:32:41.000Z,97987
2019-06-20T13:34:46.000Z,97989
2019-06-20T13:36:11.000Z,97990
2019-06-20T13:38:14.000Z,97990
2019-06-20T13:39:36.000Z,97991
2019-06-20T13:41:38.000Z,97990
2019-06-20T13:43:02.000Z,97990
2019-06-20T13:45:03.000Z,97987
2019-06-20T13:46:26.000Z,97987
2019-06-20T13:48:28.000Z,97985
2019-06-20T13:49:50.000Z,97984
2019-06-20T13:51:51.000Z,97984
2019-06-20T13:53:14.000Z,97982
2019-06-20T13:55:19.000Z,97980
2019-06-20T13:56:41.000Z,97979
2019-06-20T13:58:45.000Z,97977
2019-06-20T14:00:08.000Z,97976
2019-06-20T14:02:09.000Z,97972
2019-06-20T14:03:31.000Z,97978
2019-06-20T14:05:33.000Z,97984
2019-06-20T14:06:56.000Z,97991
2019-06-20T14:08:59.000Z,97994
2019-06-20T14:10:22.000Z,97995
2019-06-20T14:12:25.000Z,97990
2019-06-20T14:13:47.000Z,97985
2019-06-20T14:15:55.000Z,97980
2019-06-20T14:17:17.000Z,97982
2019-06-20T14:19:20.000Z,97982
2019-06-20T14:20:43.000Z,97985
2019-06-20T14:22:46.000Z,97982
2019-06-20T14:24:12.000Z,97978
2019-06-20T14:26:14.000Z,97969
2019-06-20T14:27:37.000Z,97963
2019-06-20T14:29:41.000Z,97961
2019-06-20T14:31:06.000Z,97963
2019-06-20T14:33:11.000Z,97959
2019-06-20T14:34:34.000Z,97956
2019-06-20T14:36:36.000Z,97955
2019-06-20T14:37:59.000Z,97956
2019-06-20T14:40:03.000Z,97959
2019-06-20T14:41:26.000Z,97962
2019-06-20T14:43:27.000Z,97960
2019-06-20T14:44:51.000Z,97956
2019-06-20T14:46:53.000Z,97957
2019-06-20T14:48:16.000Z,97958
2019-06-20T14:50:22.000Z,97959
2019-06-20T14:51:45.000Z,97957
2019-06-20T14:53:54.000Z,97956
2019-06-20T14:55:19.000Z,97958
2019-06-20T14:57:22.000Z,97960
2019-06-20T14:58:50.000Z,97963
2019-06-20T15:00:58.000Z,97967
2019-06-20T15:02:26.000Z,97970
2019-06-20T15:04:46.000Z,97974
2019-06-20T15:06:09.000Z,97971
2019-06-20T15:08:11.000Z,97967
2019-06-20T15:09:35.000Z,97964
2019-06-20T15:11:43.000Z,97965
2019-06-20T15:13:10.000Z,97964
2019-06-20T15:15:16.000Z,97965
2019-06-20T15:16:41.000Z,97964
2019-06-20T15:18:51.000Z,97961
2019-06-20T15:20:20.000Z,97959
2019-06-20T15:22:24.000Z,97953
2019-06-20T15:23:49.000Z,97950
2019-06-20T15:26:00.000Z,97947
2019-06-20T15:27:27.000Z,97944
2019-06-20T15:29:31.000Z,97943
2019-06-20T15:30:54.000Z,97936
2019-06-20T15:32:58.000Z,97934
2019-06-20T15:34:37.000Z,97931
2019-06-20T15:36:44.000Z,97930
2019-06-20T15:38:09.000Z,97929
2019-06-20T15:40:15.000Z,97929
2019-06-20T15:41:37.000Z,97933
2019-06-20T15:43:41.000Z,97937
2019-06-20T15:45:07.000Z,97946
2019-06-20T15:47:14.000Z,97952
2019-06-20T15:48:47.000Z,97957
2019-06-20T15:50:53.000Z,97962
2019-06-20T15:52:22.000Z,97966
2019-06-20T15:54:35.000Z,97967
2019-06-20T15:56:00.000Z,97964
2019-06-20T15:58:07.000Z,97964
2019-06-20T15:59:34.000Z,97963
2019-06-20T16:01:39.000Z,97967
2019-06-20T16:03:10.000Z,97969
2019-06-20T16:05:22.000Z,97967
2019-06-20T16:06:50.000Z,97969
2019-06-20T16:08:56.000Z,97982
2019-06-20T16:10:30.000Z,98001
2019-06-20T16:12:41.000Z,98014
2019-06-20T16:14:12.000Z,98027
2019-06-20T16:16:26.000Z,98050
2019-06-20T16:17:54.000Z,98059
2019-06-20T16:20:05.000Z,98059
2019-06-20T16:21:31.000Z,98069
2019-06-20T16:23:38.000Z,98066
2019-06-20T16:25:09.000Z,98062
2019-06-20T16:27:26.000Z,98048
2019-06-20T16:28:56.000Z,98047
2019-06-20T16:31:09.000Z,98047
2019-06-20T16:32:54.000Z,98057
2019-06-20T16:35:02.000Z,98073
2019-06-20T16:36:29.000Z,98077
2019-06-20T16:38:36.000Z,98081
2019-06-20T16:40:03.000Z,98076
2019-06-20T16:42:12.000Z,98075
2019-06-20T16:43:46.000Z,98068
2019-06-20T16:45:57.000Z,98064
2019-06-20T16:47:24.000Z,98062
2019-06-20T16:49:34.000Z,98054
2019-06-20T16:51:04.000Z,98054
2019-06-20T16:53:09.000Z,98059
2019-06-20T16:54:42.000Z,98065
2019-06-20T16:56:52.000Z,98073
2019-06-20T16:58:21.000Z,98082
2019-06-20T17:00:31.000Z,98083
2019-06-20T17:02:01.000Z,98081
2019-06-20T17:04:14.000Z,98080
2019-06-20T17:05:50.000Z,98078
2019-06-20T17:08:10.000Z,98075
2019-06-20T17:09:41.000Z,98067
2019-06-20T17:11:54.000Z,98065
2019-06-20T17:13:26.000Z,98066
2019-06-20T17:15:34.000Z,98064
2019-06-20T17:17:12.000Z,98065
2019-06-20T17:19:28.000Z,98068
2019-06-20T17:20:58.000Z,98068
2019-06-20T17:24:20.000Z,98065
2019-06-20T17:25:42.000Z,98068
2019-06-20T17:27:43.000Z,98068
2019-06-20T17:29:06.000Z,98065
2019-06-20T17:31:07.000Z,98064
2019-06-20T17:32:29.000Z,98070
2019-06-20T17:34:30.000Z,98072
2019-06-20T17:35:52.000Z,98075
2019-06-20T17:37:53.000Z,98071
2019-06-20T17:39:15.000Z,98068
2019-06-20T17:41:16.000Z,98069
2019-06-20T17:42:38.000Z,98069
2019-06-20T17:44:39.000Z,98070
2019-06-20T17:46:02.000Z,98068
2019-06-20T17:48:03.000Z,98065
2019-06-20T17:49:27.000Z,98062
2019-06-20T17:51:29.000Z,98061
2019-06-20T17:52:52.000Z,98063
2019-06-20T17:54:53.000Z,98064
2019-06-20T17:56:15.000Z,98070
2019-06-20T17:58:19.000Z,98069
2019-06-20T17:59:42.000Z,98071
2019-06-20T18:01:43.000Z,98068
2019-06-20T18:03:07.000Z,98068
2019-06-20T18:05:08.000Z,98069
2019-06-20T18:06:30.000Z,98067
2019-06-20T18:08:31.000Z,98067
2019-06-20T18:09:53.000Z,98073
2019-06-20T18:11:54.000Z,98083
2019-06-20T18:13:19.000Z,98085
2019-06-20T18:15:21.000Z,98087
2019-06-20T18:16:44.000Z,98088
2019-06-20T18:18:46.000Z,98088
2019-06-20T18:20:09.000Z,98091
2019-06-20T18:22:10.000Z,98095
2019-06-20T18:23:33.000Z,98099
2019-06-20T18:25:35.000Z,98104
2019-06-20T18:26:58.000Z,98110
2019-06-20T18:29:00.000Z,98117
2019-06-20T18:30:22.000Z,98121
2019-06-20T18:32:26.000Z,98122
2019-06-20T18:33:49.000Z,98125
2019-06-20T18:35:51.000Z,98130
2019-06-20T18:37:13.000Z,98137
2019-06-20T18:39:16.000Z,98139
2019-06-20T18:40:39.000Z,98141
2019-06-20T18:42:41.000Z,98140
2019-06-20T18:44:05.000Z,98139
2019-06-20T18:46:09.000Z,98140
2019-06-20T18:47:31.000Z,98141
2019-06-20T18:49:34.000Z,98147
2019-06-20T18:50:59.000Z,98160
2019-06-20T18:53:04.000Z,98167
2019-06-20T18:54:27.000Z,98169
2019-06-20T18:56:29.000Z,98166
2019-06-20T18:57:52.000Z,98164
2019-06-20T18:59:54.000Z,98166
2019-06-20T19:01:19.000Z,98167
2019-06-20T19:03:22.000Z,98164
2019-06-20T19:04:46.000Z,98161
2019-06-20T19:06:54.000Z,98160
2019-06-20T19:08:17.000Z,98159
2019-06-20T19:10:20.000Z,98161
2019-06-20T19:11:46.000Z,98165
2019-06-20T19:13:50.000Z,98168
2019-06-20T19:15:13.000Z,98164
2019-06-20T19:17:17.000Z,98161
2019-06-20T19:18:43.000Z,98156
2019-06-20T19:20:46.000Z,98153
2019-06-20T19:22:09.000Z,98155
2019-06-20T19:24:12.000Z,98156
2019-06-20T19:25:34.000Z,98159
2019-06-20T19:27:35.000Z,98158
2019-06-20T19:29:10.000Z,98162
2019-06-20T19:31:12.000Z,98174
2019-06-20T19:32:34.000Z,98178
2019-06-20T19:34:39.000Z,98178
2019-06-20T19:36:06.000Z,98177
2019-06-20T19:38:09.000Z,98181
2019-06-20T19:39:35.000Z,98184
2019-06-20T19:41:44.000Z,98191
2019-06-20T19:43:08.000Z,98193
2019-06-20T19:45:10.000Z,98197
2019-06-20T19:46:34.000Z,98199
2019-06-20T19:48:35.000Z,98200
2019-06-20T19:49:58.000Z,98201
2019-06-20T19:52:04.000Z,98201
2019-06-20T19:53:29.000Z,98201
2019-06-20T19:55:36.000Z,98201
2019-06-20T19:56:59.000Z,98202
2019-06-20T19:59:06.000Z,98205
2019-06-20T20:00:37.000Z,98209
2019-06-20T20:02:39.000Z,98216
2019-06-20T20:04:03.000Z,98220
2019-06-20T20:06:08.000Z,98225
2019-06-20T20:07:38.000Z,98227
2019-06-20T20:09:43.000Z,98228
2019-06-20T20:11:11.000Z,98228
2019-06-20T20:13:22.000Z,98227
2019-06-20T20:14:49.000Z,98225
2019-06-20T20:16:53.000Z,98225
2019-06-20T20:18:18.000Z,98226
2019-06-20T20:20:26.000Z,98231
2019-06-20T20:21:51.000Z,98230
2019-06-20T20:23:53.000Z,98233
2019-06-20T20:25:20.000Z,98235
2019-06-20T20:27:26.000Z,98235
2019-06-20T20:28:54.000Z,98239
2019-06-20T20:31:01.000Z,98236
2019-06-20T20:32:29.000Z,98235
2019-06-20T20:34:31.000Z,98236
2019-06-20T20:35:59.000Z,98235
2019-06-20T20:38:03.000Z,98235
2019-06-20T20:39:32.000Z,98238
2019-06-20T20:41:41.000Z,98239
2019-06-20T20:43:10.000Z,98238
2019-06-20T20:45:13.000Z,98239
2019-06-20T20:46:41.000Z,98241
2019-06-20T20:48:49.000Z,98242
2019-06-20T20:50:16.000Z,98244
2019-06-20T20:52:21.000Z,98247
2019-06-20T20:53:50.000Z,98246
2019-06-20T20:55:55.000Z,98248
2019-06-20T20:57:20.000Z,98248
2019-06-20T20:59:35.000Z,98247
2019-06-20T21:01:06.000Z,98246
2019-06-20T21:03:15.000Z,98247
2019-06-20T21:04:44.000Z,98247
2019-06-20T21:06:50.000Z,98250
2019-06-20T21:08:21.000Z,98255
2019-06-20T21:10:28.000Z,98259
2019-06-20T21:12:01.000Z,98261
2019-06-20T21:14:09.000Z,98265
2019-06-20T21:15:37.000Z,98267
2019-06-20T21:17:42.000Z,98265
2019-06-20T21:19:13.000Z,98264
2019-06-20T21:21:21.000Z,98266
2019-06-20T21:22:53.000Z,98268
2019-06-20T21:25:04.000Z,98270
2019-06-20T21:26:29.000Z,98269
2019-06-20T21:28:40.000Z,98268
2019-06-20T21:30:06.000Z,98270
2019-06-20T21:32:23.000Z,98270
2019-06-20T21:33:47.000Z,98271
2019-06-20T21:35:59.000Z,98270
2019-06-20T21:37:40.000Z,98269
2019-06-20T21:39:52.000Z,98268
2019-06-20T21:41:17.000Z,98270
2019-06-20T21:43:27.000Z,98273
2019-06-20T21:44:54.000Z,98273
2019-06-20T21:47:03.000Z,98276
2019-06-20T21:48:32.000Z,98276
2019-06-20T21:50:42.000Z,98277
2019-06-20T21:52:13.000Z,98280
2019-06-20T21:54:22.000Z,98283
2019-06-20T21:55:53.000Z,98283
2019-06-20T21:58:06.000Z,98286
2019-06-20T21:59:34.000Z,98289
2019-06-20T22:01:43.000Z,98291
2019-06-20T22:03:12.000Z,98290
2019-06-20T22:05:21.000Z,98290
2019-06-20T22:06:51.000Z,98289
2019-06-20T22:09:00.000Z,98289
2019-06-20T22:10:36.000Z,98289
2019-06-20T22:13:59.000Z,98291
2019-06-20T22:15:21.000Z,98294
2019-06-20T22:17:22.000Z,98294
2019-06-20T22:18:44.000Z,98294
2019-06-20T22:20:45.000Z,98294
2019-06-20T22:22:07.000Z,98295
2019-06-20T22:24:08.000Z,98297
2019-06-20T22:25:30.000Z,98298
2019-06-20T22:27:30.000Z,98297
2019-06-20T22:28:52.000Z,98297
2019-06-20T22:30:53.000Z,98300
2019-06-20T22:32:16.000Z,98300
2019-06-20T22:34:17.000Z,98303
2019-06-20T22:35:39.000Z,98305
2019-06-20T22:37:41.000Z,98305
2019-06-20T22:39:03.000Z,98305
2019-06-20T22:41:04.000Z,98303
2019-06-20T22:42:26.000Z,98305